Iron Station, NC

2:59 PM EST on January 31, 2015 (GMT -0500)
Southpaw Farm | Change Station
CLOSE
Current Station
Personal Weather Station
Location: Lincolnton, NC
Elevation: 935 ft
Nearby Weather Stations

Elev 935 ft 35.46 °N, 81.21 °W | Updated 37 minutes ago

Clear
Clear
50.7 °F
Feels Like 50.7 °F
N
2.7
Wind Variable Wind from SSE

Today
High -- | Low -- °F
--% Chance of Precip.
Yesterday
High -- | Low -- °F
Precip. -- in
7:25 AM 5:51 PM
Waxing Gibbous, 91% visible
Pressure 30.29 in
Visibility 10.0 miles
Clouds Clear
Dew Point 15 °F
Humidity 24%
Rainfall 0.00 in
Snow Depth Not available.
UV 3 out of 12
Pollen 3.10 out of 12
Air Quality Not available.
Flu Activity Not available.
METAR KIPJ 311955Z AUTO 16003KT 10SM CLR 10/M15 A3029 RMK AO2 T01031153

More Conditions Fewer Conditions

Pressure 30.29 in
Visibility 10.0 miles
Clouds Clear
Dew Point 15 °F
Humidity 24%
Rainfall 0.00 in
Snow Depth Not available.
UV 3 out of 12
Pollen 3.10 out of 12
Air Quality Not available.
Flu Activity Not available.
METAR KIPJ 311955Z AUTO 16003KT 10SM CLR 10/M15 A3029 RMK AO2 T01031153

More Conditions Fewer Conditions

10-Day Weather Forecast

Almanac

Astronomy

Jan. 31, 2015 Rise Set
Actual Time
Civil Twilight
Nautical Twilight
Astronomical Twilight
Moon
Length of Visible Light
Length of Day
Tomorrow will be .
, % of the Moon is Illuminated

Today's Extremes

State Highs State Lows

Community

WunderPhotos

Upload Photos

1,792,157 photos uploaded!

WunderBlogs® & News

Nearby

Air Quality

  Air Quality AQ Index Pollutant
Not available.

Snow Depth

Station Depth Elevation

Earthquake Activity

City Distance Mag. Time & Date
Minimum magnitude displayed is 2.5.

Coastal Water Temperatures

Place Temperature

Nearby Weather Stations